PRIVATE WETTERSTATION BILLIGHEIM-ALLFELD                       ZURCK
Wetterdaten: Sonntag, 02.03.2014
Datum Zeit Temp. A. Temp. A. min Temp. A. max Feuchte A. Luftdruck Regen Wind Richtung Richtung Sonnenschein ET Solar Taupunkt Windchill Windben Empfang
02.03.2014 00:00 3,9 C 3,8 C 3,9 C 87 % 1001,5 hPa 0,0 l/m 0,0 km/h (0 Bft) O-SO 112 0 min 0,000 mm 0 W/m 1,9 C 3,9 C 3,2 km/h (1 Bft) 99 %
02.03.2014 00:10 3,9 C 3,9 C 3,9 C 87 % 1001,5 hPa 0,0 l/m 0,0 km/h (0 Bft) O-SO 112 0 min 0,000 mm 0 W/m 1,9 C 3,9 C 3,2 km/h (1 Bft) 79 %
02.03.2014 00:20 3,8 C 3,8 C 3,9 C 87 % 1001,5 hPa 0,0 l/m 0,0 km/h (0 Bft) O-SO 112 0 min 0,000 mm 0 W/m 1,8 C 3,8 C 3,2 km/h (1 Bft) 99 %
02.03.2014 00:30 3,7 C 3,7 C 3,9 C 87 % 1001,6 hPa 0,0 l/m 0,0 km/h (0 Bft) N 0 0 min 0,000 mm 0 W/m 1,7 C 3,7 C 0,0 km/h (0 Bft) 100 %
02.03.2014 00:40 3,4 C 3,4 C 3,7 C 87 % 1001,6 hPa 0,0 l/m 0,0 km/h (0 Bft) O-SO 112 0 min 0,000 mm 0 W/m 1,4 C 3,4 C 3,2 km/h (1 Bft) 100 %
02.03.2014 00:50 3,6 C 3,4 C 3,6 C 88 % 1001,7 hPa 0,0 l/m 1,6 km/h (1 Bft) O-SO 112 0 min 0,000 mm 0 W/m 1,8 C 3,6 C 4,8 km/h (1 Bft) 100 %
02.03.2014 01:00 3,6 C 3,5 C 3,6 C 88 % 1001,7 hPa 0,0 l/m 0,0 km/h (0 Bft) SO 135 0 min 0,000 mm 0 W/m 1,8 C 3,6 C 4,8 km/h (1 Bft) 100 %
02.03.2014 01:10 3,6 C 3,6 C 3,6 C 88 % 1001,8 hPa 0,0 l/m 1,6 km/h (1 Bft) SO 135 0 min 0,000 mm 0 W/m 1,8 C 3,6 C 4,8 km/h (1 Bft) 100 %
02.03.2014 01:20 3,6 C 3,6 C 3,6 C 88 % 1001,9 hPa 0,0 l/m 0,0 km/h (0 Bft) S-SO 157 0 min 0,000 mm 0 W/m 1,8 C 3,6 C 1,6 km/h (1 Bft) 100 %
02.03.2014 01:30 3,2 C 3,2 C 3,6 C 87 % 1001,9 hPa 0,0 l/m 0,0 km/h (0 Bft) N 0 0 min 0,000 mm 0 W/m 1,2 C 3,2 C 0,0 km/h (0 Bft) 100 %
02.03.2014 01:40 3,4 C 3,2 C 3,4 C 88 % 1002,0 hPa 0,0 l/m 0,0 km/h (0 Bft) S-SO 157 0 min 0,000 mm 0 W/m 1,6 C 3,4 C 3,2 km/h (1 Bft) 100 %
02.03.2014 01:50 3,3 C 3,3 C 3,4 C 88 % 1002,1 hPa 0,0 l/m 0,0 km/h (0 Bft) N 0 0 min 0,000 mm 0 W/m 1,5 C 3,3 C 0,0 km/h (0 Bft) 100 %
02.03.2014 02:00 3,0 C 3,0 C 3,3 C 88 % 1002,1 hPa 0,0 l/m 0,0 km/h (0 Bft) N 0 0 min 0,000 mm 0 W/m 1,2 C 3,0 C 0,0 km/h (0 Bft) 99 %
02.03.2014 02:10 2,8 C 2,8 C 3,0 C 88 % 1001,9 hPa 0,0 l/m 0,0 km/h (0 Bft) SO 135 0 min 0,000 mm 0 W/m 1,0 C 2,8 C 1,6 km/h (1 Bft) 100 %
02.03.2014 02:20 2,9 C 2,8 C 2,9 C 88 % 1002,1 hPa 0,0 l/m 0,0 km/h (0 Bft) SO 135 0 min 0,000 mm 0 W/m 1,1 C 2,9 C 1,6 km/h (1 Bft) 100 %
02.03.2014 02:30 2,8 C 2,8 C 2,9 C 88 % 1002,1 hPa 0,0 l/m 0,0 km/h (0 Bft) N 0 0 min 0,000 mm 0 W/m 1,0 C 2,8 C 0,0 km/h (0 Bft) 100 %
02.03.2014 02:40 2,8 C 2,8 C 2,8 C 88 % 1002,1 hPa 0,0 l/m 0,0 km/h (0 Bft) N 0 0 min 0,000 mm 0 W/m 1,0 C 2,8 C 0,0 km/h (0 Bft) 100 %
02.03.2014 02:50 2,7 C 2,7 C 2,8 C 88 % 1002,1 hPa 0,0 l/m 0,0 km/h (0 Bft) N 0 0 min 0,000 mm 0 W/m 0,9 C 2,7 C 0,0 km/h (0 Bft) 99 %
02.03.2014 03:00 2,6 C 2,6 C 2,7 C 88 % 1002,2 hPa 0,0 l/m 0,0 km/h (0 Bft) SO 135 0 min 0,000 mm 0 W/m 0,8 C 2,6 C 1,6 km/h (1 Bft) 100 %
02.03.2014 03:10 2,8 C 2,6 C 2,8 C 88 % 1002,1 hPa 0,0 l/m 0,0 km/h (0 Bft) SO 135 0 min 0,000 mm 0 W/m 1,0 C 2,8 C 1,6 km/h (1 Bft) 100 %
02.03.2014 03:20 2,8 C 2,8 C 2,8 C 88 % 1002,2 hPa 0,0 l/m 0,0 km/h (0 Bft) N 0 0 min 0,000 mm 0 W/m 1,0 C 2,8 C 0,0 km/h (0 Bft) 100 %
02.03.2014 03:30 2,8 C 2,8 C 2,8 C 88 % 1002,2 hPa 0,0 l/m 0,0 km/h (0 Bft) N 0 0 min 0,000 mm 0 W/m 1,0 C 2,8 C 0,0 km/h (0 Bft) 100 %
02.03.2014 03:40 2,7 C 2,7 C 2,8 C 88 % 1002,2 hPa 0,0 l/m 0,0 km/h (0 Bft) N 0 0 min 0,000 mm 0 W/m 0,9 C 2,7 C 0,0 km/h (0 Bft) 100 %
02.03.2014 03:50 2,7 C 2,7 C 2,7 C 88 % 1002,2 hPa 0,0 l/m 0,0 km/h (0 Bft) N 0 0 min 0,000 mm 0 W/m 0,9 C 2,7 C 0,0 km/h (0 Bft) 99 %
02.03.2014 04:00 2,6 C 2,6 C 2,7 C 88 % 1002,2 hPa 0,0 l/m 0,0 km/h (0 Bft) N 0 0 min 0,000 mm 0 W/m 0,8 C 2,6 C 0,0 km/h (0 Bft) 100 %
02.03.2014 04:10 2,6 C 2,6 C 2,6 C 88 % 1002,4 hPa 0,0 l/m 0,0 km/h (0 Bft) SO 135 0 min 0,000 mm 0 W/m 0,8 C 2,6 C 1,6 km/h (1 Bft) 100 %
02.03.2014 04:20 2,6 C 2,6 C 2,7 C 88 % 1002,4 hPa 0,0 l/m 0,0 km/h (0 Bft) N 0 0 min 0,000 mm 0 W/m 0,8 C 2,6 C 0,0 km/h (0 Bft) 100 %
02.03.2014 04:30 2,6 C 2,6 C 2,7 C 88 % 1002,4 hPa 0,0 l/m 0,0 km/h (0 Bft) N 0 0 min 0,000 mm 0 W/m 0,8 C 2,6 C 0,0 km/h (0 Bft) 89 %
02.03.2014 04:40 2,4 C 2,4 C 2,6 C 88 % 1002,5 hPa 0,0 l/m 0,0 km/h (0 Bft) N 0 0 min 0,000 mm 0 W/m 0,6 C 2,4 C 0,0 km/h (0 Bft) 99 %
02.03.2014 04:50 2,2 C 2,2 C 2,4 C 88 % 1002,5 hPa 0,0 l/m 0,0 km/h (0 Bft) N 0 0 min 0,000 mm 0 W/m 0,4 C 2,2 C 0,0 km/h (0 Bft) 100 %
02.03.2014 05:00 2,1 C 2,1 C 2,2 C 88 % 1002,7 hPa 0,0 l/m 0,0 km/h (0 Bft) N 0 0 min 0,000 mm 0 W/m 0,3 C 2,1 C 0,0 km/h (0 Bft) 100 %
02.03.2014 05:10 2,0 C 2,0 C 2,1 C 88 % 1002,8 hPa 0,0 l/m 0,0 km/h (0 Bft) N 0 0 min 0,000 mm 0 W/m 0,2 C 2,0 C 0,0 km/h (0 Bft) 100 %
02.03.2014 05:20 1,9 C 1,9 C 2,0 C 88 % 1002,8 hPa 0,0 l/m 0,0 km/h (0 Bft) N 0 0 min 0,000 mm 0 W/m 0,1 C 1,9 C 0,0 km/h (0 Bft) 100 %
02.03.2014 05:30 1,8 C 1,8 C 1,9 C 88 % 1003,0 hPa 0,0 l/m 0,0 km/h (0 Bft) N 0 0 min 0,000 mm 0 W/m 0,0 C 1,8 C 0,0 km/h (0 Bft) 100 %
02.03.2014 05:40 1,6 C 1,6 C 1,8 C 88 % 1003,1 hPa 0,0 l/m 0,0 km/h (0 Bft) N 0 0 min 0,000 mm 0 W/m -0,2 C 1,6 C 0,0 km/h (0 Bft) 100 %
02.03.2014 05:50 1,7 C 1,6 C 1,7 C 88 % 1003,2 hPa 0,0 l/m 0,0 km/h (0 Bft) SO 135 0 min 0,000 mm 0 W/m -0,1 C 1,7 C 1,6 km/h (1 Bft) 100 %
02.03.2014 06:00 1,8 C 1,7 C 1,8 C 88 % 1003,4 hPa 0,0 l/m 0,0 km/h (0 Bft) SO 135 0 min 0,000 mm 0 W/m 0,0 C 1,8 C 1,6 km/h (1 Bft) 100 %
02.03.2014 06:10 2,1 C 1,8 C 2,1 C 88 % 1003,5 hPa 0,0 l/m 0,0 km/h (0 Bft) SO 135 0 min 0,000 mm 0 W/m 0,3 C 2,1 C 1,6 km/h (1 Bft) 100 %
02.03.2014 06:20 2,1 C 2,1 C 2,1 C 88 % 1003,6 hPa 0,0 l/m 0,0 km/h (0 Bft) SO 135 0 min 0,000 mm 0 W/m 0,3 C 2,1 C 3,2 km/h (1 Bft) 100 %
02.03.2014 06:30 2,2 C 2,1 C 2,2 C 88 % 1003,7 hPa 0,0 l/m 0,0 km/h (0 Bft) S-SO 157 0 min 0,000 mm 0 W/m 0,4 C 2,2 C 1,6 km/h (1 Bft) 100 %
02.03.2014 06:40 2,2 C 2,2 C 2,2 C 88 % 1003,7 hPa 0,0 l/m 0,0 km/h (0 Bft) S-SO 157 0 min 0,000 mm 0 W/m 0,4 C 2,2 C 1,6 km/h (1 Bft) 100 %
02.03.2014 06:50 2,3 C 2,2 C 2,3 C 88 % 1003,7 hPa 0,0 l/m 0,0 km/h (0 Bft) S-SO 157 0 min 0,000 mm 0 W/m 0,5 C 2,3 C 1,6 km/h (1 Bft) 100 %
02.03.2014 07:00 2,3 C 2,3 C 2,3 C 88 % 1003,8 hPa 0,0 l/m 0,0 km/h (0 Bft) N 0 0 min 0,000 mm 0 W/m 0,5 C 2,3 C 0,0 km/h (0 Bft) 100 %
02.03.2014 07:10 2,3 C 2,3 C 2,3 C 88 % 1003,9 hPa 0,0 l/m 0,0 km/h (0 Bft) S-SO 157 0 min 0,000 mm 0 W/m 0,5 C 2,3 C 3,2 km/h (1 Bft) 100 %
02.03.2014 07:20 2,3 C 2,3 C 2,3 C 88 % 1004,1 hPa 0,0 l/m 0,0 km/h (0 Bft) S-SO 157 0 min 0,000 mm 0 W/m 0,5 C 2,3 C 3,2 km/h (1 Bft) 100 %
02.03.2014 07:30 2,3 C 2,3 C 2,3 C 88 % 1004,1 hPa 0,0 l/m 0,0 km/h (0 Bft) SO 135 0 min 0,000 mm 0 W/m 0,5 C 2,3 C 3,2 km/h (1 Bft) 100 %
02.03.2014 07:40 2,3 C 2,3 C 2,3 C 88 % 1004,3 hPa 0,0 l/m 1,6 km/h (1 Bft) SO 135 0 min 0,000 mm 9 W/m 0,5 C 2,3 C 3,2 km/h (1 Bft) 100 %
02.03.2014 07:50 2,3 C 2,3 C 2,3 C 88 % 1004,4 hPa 0,0 l/m 0,0 km/h (0 Bft) N 0 0 min 0,000 mm 21 W/m 0,5 C 2,3 C 0,0 km/h (0 Bft) 100 %
02.03.2014 08:00 2,3 C 2,3 C 2,3 C 88 % 1004,5 hPa 0,0 l/m 0,0 km/h (0 Bft) S-SO 157 0 min 0,000 mm 30 W/m 0,5 C 2,3 C 3,2 km/h (1 Bft) 100 %
02.03.2014 08:10 2,4 C 2,3 C 2,4 C 88 % 1004,5 hPa 0,0 l/m 0,0 km/h (0 Bft) N 0 0 min 0,000 mm 42 W/m 0,6 C 2,4 C 0,0 km/h (0 Bft) 100 %
02.03.2014 08:20 2,5 C 2,4 C 2,5 C 88 % 1004,5 hPa 0,0 l/m 0,0 km/h (0 Bft) S-SO 157 0 min 0,000 mm 53 W/m 0,7 C 2,5 C 3,2 km/h (1 Bft) 100 %
02.03.2014 08:30 2,6 C 2,5 C 2,6 C 88 % 1004,6 hPa 0,0 l/m 0,0 km/h (0 Bft) N 0 0 min 0,000 mm 74 W/m 0,8 C 2,6 C 0,0 km/h (0 Bft) 100 %
02.03.2014 08:40 2,8 C 2,6 C 2,8 C 88 % 1004,6 hPa 0,0 l/m 1,6 km/h (1 Bft) S-SO 157 0 min 0,000 mm 79 W/m 1,0 C 2,8 C 3,2 km/h (1 Bft) 100 %
02.03.2014 08:50 2,8 C 2,8 C 2,8 C 88 % 1004,6 hPa 0,0 l/m 0,0 km/h (0 Bft) S-SO 157 0 min 0,000 mm 90 W/m 1,0 C 2,8 C 3,2 km/h (1 Bft) 100 %
02.03.2014 09:00 2,9 C 2,8 C 2,9 C 88 % 1004,8 hPa 0,0 l/m 0,0 km/h (0 Bft) S-SO 157 0 min 0,025 mm 116 W/m 1,1 C 2,9 C 3,2 km/h (1 Bft) 100 %
02.03.2014 09:10 3,1 C 2,9 C 3,1 C 88 % 1004,9 hPa 0,0 l/m 1,6 km/h (1 Bft) S 180 0 min 0,000 mm 118 W/m 1,3 C 3,1 C 3,2 km/h (1 Bft) 100 %
02.03.2014 09:20 3,2 C 3,1 C 3,2 C 88 % 1004,9 hPa 0,0 l/m 0,0 km/h (0 Bft) S 180 0 min 0,000 mm 130 W/m 1,4 C 3,2 C 3,2 km/h (1 Bft) 90 %
02.03.2014 09:30 3,3 C 3,2 C 3,3 C 88 % 1005,1 hPa 0,0 l/m 1,6 km/h (1 Bft) S-SO 157 10 min 0,000 mm 178 W/m 1,5 C 3,3 C 6,4 km/h (2 Bft) 100 %
02.03.2014 09:40 3,6 C 3,3 C 3,6 C 89 % 1005,1 hPa 0,0 l/m 1,6 km/h (1 Bft) S-SW 202 10 min 0,000 mm 244 W/m 2,0 C 3,6 C 6,4 km/h (2 Bft) 100 %
02.03.2014 10:00 4,3 C 3,3 C 4,3 C 88 % 1005,5 hPa 0,0 l/m 1,6 km/h (1 Bft) S 173 20 min 0,077 mm 475 W/m 2,5 C 4,3 C 6,4 km/h (2 Bft) 97 %
02.03.2014 10:10 5,1 C 4,3 C 5,1 C 88 % 1005,6 hPa 0,0 l/m 0,7 km/h (0 Bft) S-SW 202 10 min 0,000 mm 533 W/m 3,3 C 5,1 C 6,4 km/h (2 Bft) 97 %
02.03.2014 10:20 5,8 C 5,1 C 5,8 C 85 % 1005,5 hPa 0,0 l/m 1,5 km/h (1 Bft) SO 145 10 min 0,000 mm 578 W/m 3,5 C 5,8 C 8,0 km/h (2 Bft) 97 %
02.03.2014 10:30 6,5 C 5,8 C 6,5 C 81 % 1005,4 hPa 0,0 l/m 1,6 km/h (1 Bft) S-SO 157 10 min 0,000 mm 557 W/m 3,5 C 6,5 C 9,7 km/h (2 Bft) 98 %
02.03.2014 10:40 6,8 C 6,5 C 6,8 C 78 % 1005,4 hPa 0,0 l/m 1,7 km/h (1 Bft) S-SW 211 10 min 0,000 mm 283 W/m 3,2 C 6,8 C 9,7 km/h (2 Bft) 97 %
02.03.2014 10:50 6,5 C 6,5 C 6,8 C 80 % 1005,6 hPa 0,0 l/m 1,5 km/h (1 Bft) S 182 10 min 0,000 mm 302 W/m 3,3 C 6,5 C 8,0 km/h (2 Bft) 97 %
02.03.2014 11:00 6,4 C 6,4 C 6,6 C 77 % 1005,6 hPa 0,0 l/m 2,8 km/h (1 Bft) S-SO 159 10 min 0,177 mm 306 W/m 2,7 C 6,4 C 9,7 km/h (2 Bft) 97 %
02.03.2014 11:10 6,4 C 6,3 C 6,4 C 77 % 1005,6 hPa 0,0 l/m 3,2 km/h (1 Bft) S-SW 206 10 min 0,000 mm 522 W/m 2,7 C 6,4 C 9,7 km/h (2 Bft) 96 %
02.03.2014 11:20 6,8 C 6,4 C 6,8 C 74 % 1005,6 hPa 0,0 l/m 3,7 km/h (1 Bft) S-SO 159 10 min 0,000 mm 434 W/m 2,5 C 6,8 C 11,3 km/h (2 Bft) 98 %
02.03.2014 11:30 6,9 C 6,7 C 6,9 C 73 % 1005,6 hPa 0,0 l/m 4,4 km/h (1 Bft) SO 134 10 min 0,000 mm 591 W/m 2,4 C 6,9 C 11,3 km/h (2 Bft) 97 %
02.03.2014 11:40 7,3 C 6,9 C 7,3 C 72 % 1005,7 hPa 0,0 l/m 5,4 km/h (1 Bft) S 173 10 min 0,000 mm 664 W/m 2,6 C 7,3 C 16,1 km/h (3 Bft) 98 %
02.03.2014 11:50 7,3 C 7,3 C 7,3 C 71 % 1005,7 hPa 0,0 l/m 6,2 km/h (2 Bft) SW 215 10 min 0,000 mm 578 W/m 2,4 C 7,3 C 16,1 km/h (3 Bft) 97 %
02.03.2014 12:00 7,6 C 7,3 C 7,6 C 72 % 1005,6 hPa 0,0 l/m 4,4 km/h (1 Bft) S 180 10 min 0,229 mm 571 W/m 2,9 C 7,6 C 11,3 km/h (2 Bft) 97 %
02.03.2014 12:10 7,7 C 7,5 C 7,7 C 72 % 1005,5 hPa 0,0 l/m 1,5 km/h (1 Bft) SW 234 10 min 0,000 mm 547 W/m 3,0 C 7,7 C 8,0 km/h (2 Bft) 98 %
02.03.2014 12:20 8,1 C 7,7 C 8,1 C 69 % 1005,4 hPa 0,0 l/m 3,7 km/h (1 Bft) SO 138 10 min 0,000 mm 619 W/m 2,8 C 8,1 C 9,7 km/h (2 Bft) 97 %
02.03.2014 12:30 8,4 C 8,1 C 8,4 C 68 % 1005,3 hPa 0,0 l/m 1,4 km/h (1 Bft) S-SW 198 10 min 0,000 mm 715 W/m 2,8 C 8,4 C 9,7 km/h (2 Bft) 98 %
02.03.2014 12:40 8,7 C 8,4 C 8,7 C 66 % 1005,2 hPa 0,0 l/m 4,5 km/h (1 Bft) S 189 10 min 0,000 mm 726 W/m 2,7 C 8,7 C 11,3 km/h (2 Bft) 97 %
02.03.2014 12:50 8,8 C 8,7 C 8,8 C 64 % 1005,0 hPa 0,0 l/m 3,8 km/h (1 Bft) SW 225 10 min 0,000 mm 619 W/m 2,4 C 8,8 C 16,1 km/h (3 Bft) 97 %
02.03.2014 13:00 9,1 C 8,8 C 9,1 C 62 % 1005,1 hPa 0,0 l/m 5,1 km/h (1 Bft) NW 304 10 min 0,279 mm 353 W/m 2,2 C 9,1 C 16,1 km/h (3 Bft) 98 %
02.03.2014 13:10 9,2 C 9,1 C 9,2 C 63 % 1004,8 hPa 0,0 l/m 2,8 km/h (1 Bft) W-NW 296 10 min 0,000 mm 223 W/m 2,5 C 9,2 C 9,7 km/h (2 Bft) 98 %
02.03.2014 13:20 9,0 C 9,0 C 9,2 C 61 % 1004,8 hPa 0,0 l/m 2,0 km/h (1 Bft) N-NW 329 10 min 0,000 mm 243 W/m 1,9 C 9,0 C 9,7 km/h (2 Bft) 97 %
02.03.2014 13:30 8,8 C 8,8 C 9,0 C 64 % 1004,6 hPa 0,0 l/m 0,9 km/h (0 Bft) NW 313 10 min 0,000 mm 659 W/m 2,4 C 8,8 C 8,0 km/h (2 Bft) 98 %
02.03.2014 13:40 9,2 C 8,8 C 9,2 C 66 % 1004,5 hPa 0,0 l/m 0,7 km/h (0 Bft) NW 306 10 min 0,000 mm 671 W/m 3,2 C 9,2 C 6,4 km/h (2 Bft) 100 %
02.03.2014 13:50 9,7 C 9,2 C 9,7 C 61 % 1004,4 hPa 0,0 l/m 2,7 km/h (1 Bft) W-NW 298 10 min 0,000 mm 628 W/m 2,5 C 9,7 C 8,0 km/h (2 Bft) 100 %
02.03.2014 14:00 9,8 C 9,7 C 9,8 C 62 % 1004,4 hPa 0,0 l/m 5,1 km/h (1 Bft) S-SW 205 10 min 0,000 mm 587 W/m 2,9 C 9,8 C 16,1 km/h (3 Bft) 100 %
02.03.2014 14:10 9,4 C 9,3 C 9,8 C 62 % 1004,3 hPa 0,0 l/m 3,2 km/h (1 Bft) S 183 10 min 0,229 mm 550 W/m 2,5 C 9,4 C 16,1 km/h (3 Bft) 99 %
02.03.2014 14:20 9,4 C 9,3 C 9,5 C 61 % 1004,2 hPa 0,0 l/m 7,6 km/h (2 Bft) S-SW 197 10 min 0,000 mm 494 W/m 2,3 C 8,5 C 19,3 km/h (3 Bft) 100 %
02.03.2014 14:30 9,3 C 9,3 C 9,4 C 63 % 1004,1 hPa 0,0 l/m 9,0 km/h (2 Bft) S 184 10 min 0,000 mm 476 W/m 2,6 C 7,4 C 19,3 km/h (3 Bft) 100 %
02.03.2014 14:40 8,6 C 8,6 C 9,3 C 63 % 1004,1 hPa 0,0 l/m 6,7 km/h (2 Bft) S-SW 196 0 min 0,000 mm 105 W/m 2,0 C 8,4 C 14,5 km/h (3 Bft) 99 %
02.03.2014 14:50 8,5 C 8,3 C 8,6 C 64 % 1004,1 hPa 0,0 l/m 6,0 km/h (2 Bft) S-SW 194 10 min 0,000 mm 446 W/m 2,1 C 8,5 C 11,3 km/h (2 Bft) 97 %
02.03.2014 15:00 8,6 C 8,5 C 8,6 C 64 % 1004,2 hPa 0,0 l/m 9,5 km/h (2 Bft) S-SO 168 10 min 0,000 mm 381 W/m 2,2 C 6,4 C 17,7 km/h (3 Bft) 98 %
02.03.2014 15:10 8,6 C 8,4 C 8,6 C 65 % 1004,1 hPa 0,0 l/m 6,2 km/h (2 Bft) S-SW 205 10 min 0,203 mm 388 W/m 2,4 C 8,6 C 14,5 km/h (3 Bft) 89 %
02.03.2014 15:20 8,8 C 8,6 C 8,8 C 62 % 1004,1 hPa 0,0 l/m 6,4 km/h (2 Bft) S-SW 198 10 min 0,000 mm 163 W/m 1,9 C 8,8 C 14,5 km/h (3 Bft) 97 %
02.03.2014 15:30 8,0 C 8,0 C 8,8 C 67 % 1004,1 hPa 0,0 l/m 2,5 km/h (1 Bft) S-SW 198 0 min 0,000 mm 58 W/m 2,3 C 8,0 C 8,0 km/h (2 Bft) 97 %
02.03.2014 15:40 7,4 C 7,4 C 8,0 C 67 % 1004,0 hPa 0,0 l/m 1,7 km/h (1 Bft) S-SO 148 0 min 0,000 mm 72 W/m 1,7 C 7,4 C 6,4 km/h (2 Bft) 97 %
02.03.2014 15:50 7,4 C 7,3 C 7,4 C 67 % 1004,1 hPa 0,0 l/m 0,8 km/h (0 Bft) S-SO 159 0 min 0,000 mm 128 W/m 1,7 C 7,4 C 6,4 km/h (2 Bft) 98 %
02.03.2014 16:00 7,9 C 7,4 C 7,9 C 66 % 1004,0 hPa 0,0 l/m 5,0 km/h (1 Bft) SW 214 0 min 0,000 mm 139 W/m 1,9 C 7,9 C 19,3 km/h (3 Bft) 97 %
02.03.2014 16:10 8,1 C 7,9 C 8,2 C 64 % 1004,0 hPa 0,0 l/m 3,7 km/h (1 Bft) S-SW 206 0 min 0,102 mm 86 W/m 1,7 C 8,1 C 16,1 km/h (3 Bft) 98 %
02.03.2014 16:20 8,1 C 8,1 C 8,2 C 65 % 1004,0 hPa 0,0 l/m 4,8 km/h (1 Bft) SW 229 0 min 0,000 mm 62 W/m 1,9 C 8,1 C 11,3 km/h (2 Bft) 97 %
02.03.2014 16:30 7,8 C 7,8 C 8,1 C 66 % 1003,8 hPa 0,0 l/m 0,0 km/h (0 Bft) W-SW 237 0 min 0,000 mm 72 W/m 1,9 C 7,8 C 1,6 km/h (1 Bft) 97 %
02.03.2014 16:40 7,8 C 7,8 C 7,8 C 64 % 1003,8 hPa 0,0 l/m 2,2 km/h (1 Bft) S-SO 161 0 min 0,000 mm 70 W/m 1,4 C 7,8 C 8,0 km/h (2 Bft) 98 %
02.03.2014 16:50 7,6 C 7,6 C 7,8 C 65 % 1003,9 hPa 0,0 l/m 2,8 km/h (1 Bft) SO 138 0 min 0,000 mm 47 W/m 1,5 C 7,6 C 11,3 km/h (2 Bft) 97 %
02.03.2014 17:00 7,4 C 7,4 C 7,6 C 66 % 1004,0 hPa 0,0 l/m 1,9 km/h (1 Bft) S-SO 150 0 min 0,000 mm 32 W/m 1,5 C 7,4 C 9,7 km/h (2 Bft) 88 %
02.03.2014 17:10 7,1 C 7,1 C 7,4 C 66 % 1003,8 hPa 0,0 l/m 3,3 km/h (1 Bft) S 173 0 min 0,051 mm 26 W/m 1,2 C 7,1 C 9,7 km/h (2 Bft) 97 %
02.03.2014 17:20 6,9 C 6,9 C 7,1 C 67 % 1003,7 hPa 0,0 l/m 0,9 km/h (0 Bft) S-SO 161 0 min 0,000 mm 26 W/m 1,2 C 6,9 C 4,8 km/h (1 Bft) 97 %
02.03.2014 17:30 6,8 C 6,8 C 6,9 C 67 % 1003,8 hPa 0,0 l/m 0,3 km/h (0 Bft) S 182 0 min 0,000 mm 28 W/m 1,1 C 6,8 C 3,2 km/h (1 Bft) 97 %
02.03.2014 17:40 6,8 C 6,8 C 6,8 C 69 % 1003,6 hPa 0,0 l/m 0,0 km/h (0 Bft) S 182 0 min 0,000 mm 16 W/m 1,5 C 6,8 C 1,6 km/h (1 Bft) 97 %
02.03.2014 17:50 6,7 C 6,7 C 6,8 C 69 % 1003,6 hPa 0,0 l/m 0,3 km/h (0 Bft) S 171 0 min 0,000 mm 9 W/m 1,4 C 6,7 C 3,2 km/h (1 Bft) 98 %
02.03.2014 18:00 6,4 C 6,4 C 6,7 C 69 % 1003,7 hPa 0,0 l/m 0,6 km/h (0 Bft) SO 127 0 min 0,000 mm 0 W/m 1,1 C 6,4 C 4,8 km/h (1 Bft) 97 %
02.03.2014 18:10 6,2 C 6,2 C 6,4 C 71 % 1003,4 hPa 0,0 l/m 0,9 km/h (0 Bft) O-SO 113 0 min 0,025 mm 0 W/m 1,3 C 6,2 C 6,4 km/h (2 Bft) 97 %
02.03.2014 18:20 5,9 C 5,9 C 6,2 C 73 % 1003,3 hPa 0,0 l/m 0,7 km/h (0 Bft) O-SO 110 0 min 0,000 mm 0 W/m 1,4 C 5,9 C 6,4 km/h (2 Bft) 98 %
02.03.2014 18:30 5,7 C 5,7 C 5,9 C 74 % 1003,2 hPa 0,0 l/m 0,4 km/h (0 Bft) O 89 0 min 0,000 mm 0 W/m 1,4 C 5,7 C 4,8 km/h (1 Bft) 97 %
02.03.2014 18:40 5,6 C 5,6 C 5,7 C 74 % 1003,0 hPa 0,0 l/m 0,4 km/h (0 Bft) O-SO 108 0 min 0,000 mm 0 W/m 1,3 C 5,6 C 4,8 km/h (1 Bft) 97 %
02.03.2014 18:50 5,4 C 5,4 C 5,6 C 74 % 1002,9 hPa 0,0 l/m 0,5 km/h (0 Bft) O 100 0 min 0,000 mm 0 W/m 1,1 C 5,4 C 4,8 km/h (1 Bft) 97 %
02.03.2014 19:00 5,3 C 5,3 C 5,5 C 75 % 1002,7 hPa 0,0 l/m 0,5 km/h (0 Bft) O 85 0 min 0,000 mm 0 W/m 1,2 C 5,3 C 4,8 km/h (1 Bft) 97 %
02.03.2014 19:10 5,3 C 5,3 C 5,3 C 75 % 1002,5 hPa 0,0 l/m 0,0 km/h (0 Bft) O 100 0 min 0,000 mm 0 W/m 1,2 C 5,3 C 1,6 km/h (1 Bft) 98 %
02.03.2014 19:20 5,1 C 5,1 C 5,3 C 75 % 1002,4 hPa 0,0 l/m 0,0 km/h (0 Bft) O 100 0 min 0,000 mm 0 W/m 1,0 C 5,1 C 0,0 km/h (0 Bft) 97 %
02.03.2014 19:30 4,8 C 4,8 C 5,1 C 76 % 1002,2 hPa 0,0 l/m 0,1 km/h (0 Bft) O 100 0 min 0,000 mm 0 W/m 0,9 C 4,8 C 3,2 km/h (1 Bft) 97 %
02.03.2014 19:40 4,6 C 4,6 C 4,8 C 76 % 1002,2 hPa 0,0 l/m 0,5 km/h (0 Bft) O 86 0 min 0,000 mm 0 W/m 0,7 C 4,6 C 4,8 km/h (1 Bft) 97 %
02.03.2014 19:50 4,6 C 4,6 C 4,6 C 76 % 1002,0 hPa 0,0 l/m 0,2 km/h (0 Bft) O 90 0 min 0,000 mm 0 W/m 0,7 C 4,6 C 3,2 km/h (1 Bft) 98 %
02.03.2014 20:00 4,2 C 4,2 C 4,6 C 78 % 1002,0 hPa 0,0 l/m 0,1 km/h (0 Bft) O-SO 103 0 min 0,000 mm 0 W/m 0,7 C 4,2 C 3,2 km/h (1 Bft) 97 %
02.03.2014 20:10 3,8 C 3,8 C 4,2 C 79 % 1001,9 hPa 0,0 l/m 0,1 km/h (0 Bft) O 101 0 min 0,025 mm 0 W/m 0,5 C 3,8 C 1,6 km/h (1 Bft) 98 %
02.03.2014 20:20 3,3 C 3,3 C 3,8 C 81 % 1001,8 hPa 0,0 l/m 0,0 km/h (0 Bft) O 101 0 min 0,000 mm 0 W/m 0,4 C 3,3 C 1,6 km/h (1 Bft) 97 %
02.03.2014 20:30 3,2 C 3,2 C 3,3 C 81 % 1001,8 hPa 0,0 l/m 0,0 km/h (0 Bft) O 101 0 min 0,000 mm 0 W/m 0,3 C 3,2 C 0,0 km/h (0 Bft) 98 %
02.03.2014 20:40 3,0 C 3,0 C 3,2 C 81 % 1001,7 hPa 0,0 l/m 0,1 km/h (0 Bft) O 101 0 min 0,000 mm 0 W/m 0,1 C 3,0 C 1,6 km/h (1 Bft) 97 %
02.03.2014 20:50 2,9 C 2,9 C 3,0 C 82 % 1001,6 hPa 0,0 l/m 0,1 km/h (0 Bft) O 99 0 min 0,000 mm 0 W/m 0,1 C 2,9 C 1,6 km/h (1 Bft) 97 %
02.03.2014 21:00 2,7 C 2,7 C 2,9 C 83 % 1001,5 hPa 0,0 l/m 0,1 km/h (0 Bft) O-SO 105 0 min 0,000 mm 0 W/m 0,1 C 2,7 C 3,2 km/h (1 Bft) 97 %
02.03.2014 21:10 2,6 C 2,6 C 2,7 C 83 % 1001,4 hPa 0,0 l/m 0,0 km/h (0 Bft) O-SO 112 0 min 0,000 mm 0 W/m 0,0 C 2,6 C 3,2 km/h (1 Bft) 100 %
02.03.2014 21:20 2,7 C 2,6 C 2,7 C 84 % 1001,0 hPa 0,0 l/m 0,0 km/h (0 Bft) O-SO 112 0 min 0,000 mm 0 W/m 0,3 C 2,7 C 3,2 km/h (1 Bft) 100 %
02.03.2014 21:30 2,7 C 2,7 C 2,8 C 82 % 1001,0 hPa 0,0 l/m 0,0 km/h (0 Bft) SO 135 0 min 0,000 mm 0 W/m -0,1 C 2,7 C 3,2 km/h (1 Bft) 100 %
02.03.2014 21:40 2,5 C 2,5 C 2,7 C 83 % 1000,8 hPa 0,0 l/m 0,0 km/h (0 Bft) O-SO 112 0 min 0,000 mm 0 W/m -0,1 C 2,5 C 4,8 km/h (1 Bft) 100 %
02.03.2014 21:50 2,3 C 2,3 C 2,5 C 84 % 1000,3 hPa 0,0 l/m 0,0 km/h (0 Bft) O 90 0 min 0,000 mm 0 W/m -0,1 C 2,3 C 4,8 km/h (1 Bft) 100 %
02.03.2014 22:00 2,3 C 2,3 C 2,4 C 84 % 1000,4 hPa 0,0 l/m 0,0 km/h (0 Bft) O 90 0 min 0,000 mm 0 W/m -0,1 C 2,3 C 3,2 km/h (1 Bft) 100 %
02.03.2014 22:10 2,1 C 2,1 C 2,3 C 85 % 1000,2 hPa 0,0 l/m 0,0 km/h (0 Bft) N-NW 337 0 min 0,000 mm 0 W/m -0,2 C 2,1 C 4,8 km/h (1 Bft) 100 %
02.03.2014 22:20 1,8 C 1,8 C 2,1 C 85 % 1000,0 hPa 0,0 l/m 0,0 km/h (0 Bft) N-NW 337 0 min 0,000 mm 0 W/m -0,4 C 1,8 C 1,6 km/h (1 Bft) 100 %
02.03.2014 22:30 1,5 C 1,5 C 1,8 C 86 % 999,8 hPa 0,0 l/m 0,0 km/h (0 Bft) N-NW 337 0 min 0,000 mm 0 W/m -0,6 C 1,5 C 4,8 km/h (1 Bft) 91 %
02.03.2014 22:40 1,4 C 1,4 C 1,6 C 86 % 999,7 hPa 0,0 l/m 0,0 km/h (0 Bft) NW 315 0 min 0,000 mm 0 W/m -0,7 C 1,4 C 4,8 km/h (1 Bft) 100 %
02.03.2014 22:50 1,4 C 1,4 C 1,4 C 86 % 999,4 hPa 0,0 l/m 0,0 km/h (0 Bft) N 0 0 min 0,000 mm 0 W/m -0,7 C 1,4 C 0,0 km/h (0 Bft) 100 %
02.03.2014 23:00 1,4 C 1,3 C 1,4 C 87 % 999,4 hPa 0,0 l/m 0,0 km/h (0 Bft) O 90 0 min 0,000 mm 0 W/m -0,5 C 1,4 C 4,8 km/h (1 Bft) 100 %
02.03.2014 23:10 1,4 C 1,4 C 1,4 C 87 % 999,3 hPa 0,0 l/m 0,0 km/h (0 Bft) O-SO 112 0 min 0,000 mm 0 W/m -0,5 C 1,4 C 3,2 km/h (1 Bft) 100 %
02.03.2014 23:20 1,8 C 1,4 C 1,8 C 87 % 998,9 hPa 0,0 l/m 0,0 km/h (0 Bft) O 90 0 min 0,000 mm 0 W/m -0,1 C 1,8 C 6,4 km/h (2 Bft) 100 %
02.03.2014 23:30 2,3 C 1,8 C 2,3 C 86 % 998,8 hPa 0,0 l/m 1,6 km/h (1 Bft) O-SO 112 0 min 0,000 mm 0 W/m 0,2 C 2,3 C 6,4 km/h (2 Bft) 100 %
02.03.2014 23:40 2,6 C 2,3 C 2,6 C 85 % 998,6 hPa 0,0 l/m 1,6 km/h (1 Bft) O 90 0 min 0,000 mm 0 W/m 0,3 C 2,6 C 4,8 km/h (1 Bft) 100 %
02.03.2014 23:50 2,7 C 2,6 C 2,7 C 84 % 998,4 hPa 0,0 l/m 0,0 km/h (0 Bft) O-SO 112 0 min 0,000 mm 0 W/m 0,3 C 2,7 C 4,8 km/h (1 Bft) 100 %
_ Min-Zeit 23:00 23:00 22:50 13:20 23:50 - 00:00 - - - - - 22:40 22:40 00:30 00:10
Minimum _ 1,3 C 1,3 C 1,4 C 61 % 998,4 hPa - 0,0 km/h (0 Bft) - - - - - -0,7 C 1,4 C 0,0 km/h (0 Bft) 79 %
_ Max-Zeit 14:00 14:00 14:00 09:40 11:40 00:00 15:00 - - 10:00 13:00 12:40 10:30 14:00 14:20 00:40
Maximum _ 9,8 C 9,7 C 9,8 C 89 % 1005,7 hPa 0,0 l/m 9,5 km/h
S-SO (2 Bft)
- - 20 min 0,279 mm 726 W/m 3,5 C 9,8 C 19,3 km/h
S-SW (3 Bft)
100 %
Durchschnitt _ 4,6 C 4,5 C 4,7 C 80 % 1003,1 hPa #0,0 l/m 1,2 km/h (1 Bft) S-SW - #5:50 h #1,422 mm 296 W/m 1,2 C 4,6 C 5,2 km/h (1 Bft) 98 %
PRIVATE WETTERSTATION BILLIGHEIM-ALLFELD - www.neckar-odenwald-wetter.de - Holger Sonntag